Time;durP1;ratioP1;P1;durP2;ratioP2;P2;SDS_P1;SDS_P2;PMS_P1;PMS_P2;Temp;Humidity;BMP_temperature;BMP_pressure;BME280_temperature;BME280_humidity;BME280_pressure;Samples;Min_cycle;Max_cycle;Signal;HPM_P1;HPM_P2
2024/04/15 00:01:35;0.00;0.00;0.62;0.00;0.00;0.62;3.70;2.50;;;27.10;21.80;;;;;;2045646;62;20544;-65
2024/04/15 00:04:20;0.00;0.00;0.62;0.00;0.00;0.62;3.60;2.70;;;27.10;21.80;;;;;;2043128;62;20536;-64
2024/04/15 00:07:05;0.00;0.00;0.62;0.00;0.00;0.62;2.97;2.20;;;27.10;21.80;;;;;;2043238;62;20905;-64
2024/04/15 00:09:49;0.00;0.00;0.62;0.00;0.00;0.62;3.10;2.33;;;27.10;21.80;;;;;;2046624;62;20530;-65
2024/04/15 00:12:34;0.00;0.00;0.62;0.00;0.00;0.62;3.70;2.37;;;27.10;21.90;;;;;;2048176;62;20522;-65
2024/04/15 00:15:19;0.00;0.00;0.62;0.00;0.00;0.62;4.13;2.33;;;27.10;21.90;;;;;;2047628;62;20472;-64
2024/04/15 00:18:07;0.00;0.00;0.62;0.00;0.00;0.62;3.80;2.30;;;27.10;21.90;;;;;;2043075;62;21030;-65
2024/04/15 00:20:57;0.00;0.00;0.62;0.00;0.00;0.62;3.33;2.60;;;27.10;21.90;;;;;;2047916;62;20468;-65
2024/04/15 00:23:42;0.00;0.00;0.62;0.00;0.00;0.62;4.90;3.20;;;27.10;21.90;;;;;;2050162;62;20467;-65
2024/04/15 00:26:28;0.00;0.00;0.62;0.00;0.00;0.62;3.60;2.20;;;27.10;21.90;;;;;;2048962;62;20486;-65
2024/04/15 00:29:12;0.00;0.00;0.62;0.00;0.00;0.62;2.77;2.00;;;27.10;21.90;;;;;;2053007;62;20531;-65
2024/04/15 00:31:57;0.00;0.00;0.62;0.00;0.00;0.62;4.10;2.17;;;27.10;21.90;;;;;;2052933;62;20482;-65
2024/04/15 00:34:44;0.00;0.00;0.62;0.00;0.00;0.62;4.13;2.37;;;27.00;21.90;;;;;;2053083;62;20454;-65
2024/04/15 00:37:29;0.00;0.00;0.62;0.00;0.00;0.62;3.50;1.90;;;27.00;21.90;;;;;;2053095;62;21058;-62
2024/04/15 00:40:14;0.00;0.00;0.62;0.00;0.00;0.62;3.23;1.87;;;27.00;21.90;;;;;;2053141;62;20464;-65
2024/04/15 00:42:58;0.00;0.00;0.62;0.00;0.00;0.62;3.97;2.10;;;27.00;21.90;;;;;;2053416;62;20501;-65
2024/04/15 00:45:43;0.00;0.00;0.62;0.00;0.00;0.62;3.33;1.63;;;27.00;21.90;;;;;;2052967;62;20458;-65
2024/04/15 00:48:28;0.00;0.00;0.62;0.00;0.00;0.62;2.73;1.93;;;27.00;21.90;;;;;;2053418;62;20607;-65
2024/04/15 00:51:17;0.00;0.00;0.62;0.00;0.00;0.62;3.40;1.93;;;27.00;21.90;;;;;;2053415;62;20467;-65
2024/04/15 00:54:01;0.00;0.00;0.62;0.00;0.00;0.62;3.60;2.00;;;27.00;21.90;;;;;;2052982;62;21028;-65
2024/04/15 00:56:46;0.00;0.00;0.62;0.00;0.00;0.62;3.40;2.20;;;27.00;21.90;;;;;;2053391;62;20502;-65
2024/04/15 00:59:33;0.00;0.00;0.62;0.00;0.00;0.62;2.53;1.83;;;27.00;21.90;;;;;;2053197;62;20474;-65
2024/04/15 01:02:18;0.00;0.00;0.62;0.00;0.00;0.62;3.17;1.70;;;27.00;21.90;;;;;;2053403;62;20450;-65
2024/04/15 01:05:04;0.00;0.00;0.62;0.00;0.00;0.62;3.20;1.70;;;27.00;21.90;;;;;;2053322;62;20975;-65
2024/04/15 01:07:51;0.00;0.00;0.62;0.00;0.00;0.62;3.73;1.80;;;27.00;22.00;;;;;;2053306;62;20525;-65
2024/04/15 01:10:35;0.00;0.00;0.62;0.00;0.00;0.62;2.77;1.87;;;27.00;22.00;;;;;;2058297;62;20461;-65
2024/04/15 01:13:20;0.00;0.00;0.62;0.00;0.00;0.62;2.77;1.67;;;27.00;22.00;;;;;;2058450;62;20461;-65
2024/04/15 01:16:05;0.00;0.00;0.62;0.00;0.00;0.62;2.97;1.80;;;27.00;22.00;;;;;;2053866;62;20542;-65
2024/04/15 01:18:50;0.00;0.00;0.62;0.00;0.00;0.62;2.03;1.60;;;27.00;22.00;;;;;;2058080;62;21018;-65
2024/04/15 01:21:34;0.00;0.00;0.62;0.00;0.00;0.62;3.20;1.70;;;26.90;21.90;;;;;;2058140;62;21028;-65
2024/04/15 01:24:22;0.00;0.00;0.62;0.00;0.00;0.62;2.00;1.47;;;26.90;21.90;;;;;;2047942;62;20476;-65
2024/04/15 01:27:06;0.00;0.00;0.62;0.00;0.00;0.62;2.30;1.80;;;26.90;21.90;;;;;;2048140;62;20468;-64
2024/04/15 01:29:51;0.00;0.00;0.62;0.00;0.00;0.62;2.70;1.63;;;26.90;21.90;;;;;;2048760;62;20459;-65
2024/04/15 01:32:35;0.00;0.00;0.62;0.00;0.00;0.62;4.10;1.93;;;26.90;21.90;;;;;;2053220;62;20458;-65
2024/04/15 01:35:20;0.00;0.00;0.62;0.00;0.00;0.62;2.60;1.33;;;26.90;22.00;;;;;;2053134;62;20916;-65
2024/04/15 01:38:05;0.00;0.00;0.62;0.00;0.00;0.62;2.50;1.60;;;26.90;22.00;;;;;;2052701;62;20463;-64
2024/04/15 01:40:52;0.00;0.00;0.62;0.00;0.00;0.62;2.07;1.33;;;26.90;22.00;;;;;;2051346;62;20455;-66
2024/04/15 01:43:37;0.00;0.00;0.62;0.00;0.00;0.62;2.77;1.70;;;26.90;21.90;;;;;;2053283;62;20467;-64
2024/04/15 01:46:21;0.00;0.00;0.62;0.00;0.00;0.62;2.07;1.30;;;26.80;21.90;;;;;;2052095;62;20922;-65
2024/04/15 01:49:06;0.00;0.00;0.62;0.00;0.00;0.62;2.60;1.57;;;26.90;21.90;;;;;;2045981;62;20552;-64
2024/04/15 01:51:51;0.00;0.00;0.62;0.00;0.00;0.62;2.40;1.20;;;26.90;21.90;;;;;;2054445;62;20469;-65
2024/04/15 01:54:35;0.00;0.00;0.62;0.00;0.00;0.62;1.80;1.20;;;26.90;21.90;;;;;;2058226;62;21087;-65
2024/04/15 01:57:22;0.00;0.00;0.62;0.00;0.00;0.62;2.20;1.50;;;26.90;21.90;;;;;;2058239;62;21009;-64
2024/04/15 02:00:10;0.00;0.00;0.62;0.00;0.00;0.62;3.13;1.90;;;26.90;21.90;;;;;;2053020;62;20479;-65
2024/04/15 02:02:58;0.00;0.00;0.62;0.00;0.00;0.62;3.93;1.70;;;26.80;21.90;;;;;;2053611;62;20459;-65
2024/04/15 02:05:43;0.00;0.00;0.62;0.00;0.00;0.62;2.03;1.13;;;26.80;21.90;;;;;;2052114;62;20463;-65
2024/04/15 02:08:28;0.00;0.00;0.62;0.00;0.00;0.62;2.83;1.73;;;26.80;21.90;;;;;;2049937;62;20875;-64
2024/04/15 02:11:12;0.00;0.00;0.62;0.00;0.00;0.62;3.00;1.10;;;26.80;21.90;;;;;;2051656;62;20528;-64
2024/04/15 02:14:00;0.00;0.00;0.62;0.00;0.00;0.62;2.20;1.50;;;26.80;21.90;;;;;;2051588;62;21055;-64
2024/04/15 02:16:44;0.00;0.00;0.62;0.00;0.00;0.62;3.67;1.43;;;26.80;22.00;;;;;;2048204;62;20536;-64
2024/04/15 02:19:31;0.00;0.00;0.62;0.00;0.00;0.62;2.40;1.40;;;26.80;22.00;;;;;;2049742;62;20513;-64
2024/04/15 02:22:16;0.00;0.00;0.62;0.00;0.00;0.62;2.60;1.50;;;26.80;22.00;;;;;;2048947;62;20458;-65
2024/04/15 02:25:00;0.00;0.00;0.62;0.00;0.00;0.62;4.90;1.40;;;26.80;22.00;;;;;;2050509;62;20467;-64
2024/04/15 02:27:45;0.00;0.00;0.62;0.00;0.00;0.62;2.10;1.20;;;26.80;22.10;;;;;;2049347;62;20475;-63
2024/04/15 02:30:32;0.00;0.00;0.62;0.00;0.00;0.62;2.23;1.10;;;26.80;22.10;;;;;;2051647;62;20956;-63
2024/04/15 02:33:17;0.00;0.00;0.62;0.00;0.00;0.62;3.10;1.40;;;26.80;22.10;;;;;;2051649;62;20968;-64
2024/04/15 02:36:02;0.00;0.00;0.62;0.00;0.00;0.62;2.60;1.50;;;26.80;22.10;;;;;;2050260;62;20466;-64
2024/04/15 02:38:48;0.00;0.00;0.62;0.00;0.00;0.62;2.83;1.57;;;26.70;22.00;;;;;;2051762;62;20877;-64
2024/04/15 02:41:33;0.00;0.00;0.62;0.00;0.00;0.62;2.17;1.03;;;26.80;22.10;;;;;;2051502;62;20928;-65
2024/04/15 02:44:17;0.00;0.00;0.62;0.00;0.00;0.62;3.70;1.40;;;26.80;22.20;;;;;;2050850;62;20561;-64
2024/04/15 02:47:05;0.00;0.00;0.62;0.00;0.00;0.62;1.53;0.87;;;26.70;22.20;;;;;;2051258;62;20513;-64
2024/04/15 02:49:50;0.00;0.00;0.62;0.00;0.00;0.62;2.63;1.10;;;26.70;22.10;;;;;;2050354;62;21300;-64
2024/04/15 02:52:34;0.00;0.00;0.62;0.00;0.00;0.62;2.10;1.30;;;26.70;22.20;;;;;;2046590;62;21005;-64
2024/04/15 02:55:19;0.00;0.00;0.62;0.00;0.00;0.62;1.70;1.00;;;26.70;22.20;;;;;;2046400;62;20472;-64
2024/04/15 02:58:04;0.00;0.00;0.62;0.00;0.00;0.62;1.80;1.07;;;26.70;22.20;;;;;;2048123;62;20546;-64
2024/04/15 03:00:48;0.00;0.00;0.62;0.00;0.00;0.62;1.60;0.90;;;26.70;22.20;;;;;;2051265;62;20549;-64
2024/04/15 03:03:35;0.00;0.00;0.62;0.00;0.00;0.62;2.10;1.10;;;26.70;22.20;;;;;;2051991;62;20471;-65
2024/04/15 03:06:20;0.00;0.00;0.62;0.00;0.00;0.62;2.30;1.20;;;26.70;22.20;;;;;;2052242;62;20462;-64
2024/04/15 03:09:05;0.00;0.00;0.62;0.00;0.00;0.62;2.60;1.00;;;26.70;22.20;;;;;;2053023;62;20521;-65
2024/04/15 03:11:49;0.00;0.00;0.62;0.00;0.00;0.62;1.93;0.97;;;26.70;22.30;;;;;;2052635;62;20895;-64
2024/04/15 03:14:34;0.00;0.00;0.62;0.00;0.00;0.62;1.70;1.00;;;26.70;22.80;;;;;;2053441;62;20455;-65
2024/04/15 03:17:19;0.00;0.00;0.62;0.00;0.00;0.62;1.70;1.00;;;26.70;22.30;;;;;;2050694;62;20494;-64
2024/04/15 03:20:07;0.00;0.00;0.62;0.00;0.00;0.62;2.13;1.00;;;26.70;22.30;;;;;;2049564;62;20599;-65
2024/04/15 03:22:52;0.00;0.00;0.62;0.00;0.00;0.62;2.93;1.20;;;26.60;22.30;;;;;;2052895;62;20877;-65
2024/04/15 03:25:36;0.00;0.00;0.62;0.00;0.00;0.62;2.10;0.93;;;26.60;22.80;;;;;;2053068;62;20450;-64
2024/04/15 03:28:21;0.00;0.00;0.62;0.00;0.00;0.62;2.13;1.10;;;26.60;22.30;;;;;;2052711;62;21059;-64
2024/04/15 03:31:06;0.00;0.00;0.62;0.00;0.00;0.62;2.47;1.20;;;26.60;22.30;;;;;;2053503;62;20454;-65
2024/04/15 03:33:50;0.00;0.00;0.62;0.00;0.00;0.62;1.50;0.87;;;26.60;22.30;;;;;;2053683;62;20478;-65
2024/04/15 03:36:37;0.00;0.00;0.62;0.00;0.00;0.62;1.53;0.90;;;26.60;22.30;;;;;;2058765;62;20453;-65
2024/04/15 03:39:22;0.00;0.00;0.62;0.00;0.00;0.62;4.07;1.30;;;26.60;22.30;;;;;;2058472;62;20502;-65
2024/04/15 03:42:07;0.00;0.00;0.62;0.00;0.00;0.62;2.57;1.00;;;26.60;22.30;;;;;;2056500;62;20766;-65
2024/04/15 03:44:56;0.00;0.00;0.62;0.00;0.00;0.62;2.60;1.10;;;26.60;22.40;;;;;;2053620;54;20873;-64
2024/04/15 03:47:41;0.00;0.00;0.62;0.00;0.00;0.62;3.83;1.10;;;26.60;22.40;;;;;;2053146;62;20518;-64
2024/04/15 03:50:25;0.00;0.00;0.62;0.00;0.00;0.62;2.50;1.20;;;26.60;22.40;;;;;;2053017;54;20524;-64
2024/04/15 03:53:13;0.00;0.00;0.62;0.00;0.00;0.62;3.60;1.40;;;26.60;22.90;;;;;;2049205;62;20462;-65
2024/04/15 03:55:57;0.00;0.00;0.62;0.00;0.00;0.62;2.13;1.10;;;26.60;22.40;;;;;;2053680;62;20531;-64
2024/04/15 03:58:42;0.00;0.00;0.62;0.00;0.00;0.62;2.47;1.20;;;26.60;22.40;;;;;;2053474;62;20470;-65
2024/04/15 04:01:27;0.00;0.00;0.62;0.00;0.00;0.62;2.30;1.20;;;26.60;22.40;;;;;;2053393;62;20532;-65
2024/04/15 04:04:11;0.00;0.00;0.62;0.00;0.00;0.62;2.77;1.20;;;26.60;22.40;;;;;;2052931;62;20471;-65
2024/04/15 04:06:56;0.00;0.00;0.62;0.00;0.00;0.62;2.20;1.17;;;26.60;22.40;;;;;;2053465;62;20451;-65
2024/04/15 04:09:43;0.00;0.00;0.62;0.00;0.00;0.62;2.00;1.03;;;26.50;22.40;;;;;;2053370;62;20471;-64
2024/04/15 04:12:28;0.00;0.00;0.62;0.00;0.00;0.62;2.90;1.30;;;26.50;22.40;;;;;;2058020;62;20941;-67
2024/04/15 04:15:12;0.00;0.00;0.62;0.00;0.00;0.62;2.70;1.20;;;26.50;22.40;;;;;;2058641;62;20519;-65
2024/04/15 04:17:57;0.00;0.00;0.62;0.00;0.00;0.62;2.00;1.10;;;26.50;22.40;;;;;;2058483;62;20510;-65
2024/04/15 04:20:42;0.00;0.00;0.62;0.00;0.00;0.62;1.60;1.00;;;26.50;22.40;;;;;;2057749;62;20510;-65
2024/04/15 04:23:26;0.00;0.00;0.62;0.00;0.00;0.62;2.63;1.37;;;26.50;22.40;;;;;;2058522;62;20499;-65
2024/04/15 04:26:14;0.00;0.00;0.62;0.00;0.00;0.62;3.73;1.33;;;26.50;22.40;;;;;;2058069;62;20473;-66
2024/04/15 04:28:59;0.00;0.00;0.62;0.00;0.00;0.62;1.90;0.90;;;26.50;22.50;;;;;;2058592;62;20481;-64
2024/04/15 04:31:43;0.00;0.00;0.62;0.00;0.00;0.62;3.03;1.30;;;26.40;22.40;;;;;;2058713;62;20522;-65
2024/04/15 04:34:29;0.00;0.00;0.62;0.00;0.00;0.62;2.47;1.30;;;26.50;22.50;;;;;;2055777;62;20466;-65
2024/04/15 04:37:14;0.00;0.00;0.62;0.00;0.00;0.62;2.73;1.43;;;26.50;22.50;;;;;;2053472;62;20458;-65
2024/04/15 04:39:59;0.00;0.00;0.62;0.00;0.00;0.62;2.00;1.13;;;26.40;22.40;;;;;;2053120;62;20471;-65
2024/04/15 04:42:47;0.00;0.00;0.62;0.00;0.00;0.62;2.17;1.10;;;26.50;22.50;;;;;;2052510;62;20501;-65
2024/04/15 04:45:32;0.00;0.00;0.62;0.00;0.00;0.62;2.80;1.30;;;26.40;22.40;;;;;;2053329;62;20467;-65
2024/04/15 04:48:17;0.00;0.00;0.62;0.00;0.00;0.62;2.43;1.27;;;26.40;22.40;;;;;;2052976;62;20478;-65
2024/04/15 04:51:05;0.00;0.00;0.62;0.00;0.00;0.62;2.30;1.37;;;26.40;22.40;;;;;;2053580;62;20493;-65
2024/04/15 04:53:50;0.00;0.00;0.62;0.00;0.00;0.62;2.97;1.30;;;26.40;22.40;;;;;;2051767;62;20944;-65
2024/04/15 04:56:35;0.00;0.00;0.62;0.00;0.00;0.62;2.13;1.10;;;26.40;22.40;;;;;;2053046;62;20479;-65
2024/04/15 04:59:25;0.00;0.00;0.62;0.00;0.00;0.62;2.13;1.23;;;26.40;22.40;;;;;;2052976;62;20870;-65
2024/04/15 05:02:10;0.00;0.00;0.62;0.00;0.00;0.62;2.67;1.33;;;26.40;22.40;;;;;;2053647;62;21058;-65
2024/04/15 05:04:57;0.00;0.00;0.62;0.00;0.00;0.62;2.77;1.20;;;26.40;22.50;;;;;;2053229;62;20531;-65
2024/04/15 05:07:42;0.00;0.00;0.62;0.00;0.00;0.62;3.97;1.63;;;26.40;22.50;;;;;;2053254;62;20471;-65
2024/04/15 05:10:26;0.00;0.00;0.62;0.00;0.00;0.62;3.80;1.40;;;26.40;22.50;;;;;;2052770;62;20451;-65
2024/04/15 05:13:11;0.00;0.00;0.62;0.00;0.00;0.62;3.97;1.37;;;26.40;22.50;;;;;;2053870;54;21054;-64
2024/04/15 05:16:06;0.00;0.00;0.62;0.00;0.00;0.62;2.10;1.40;;;26.30;22.40;;;;;;2053038;62;20455;-64
2024/04/15 05:18:51;0.00;0.00;0.62;0.00;0.00;0.62;3.00;1.40;;;26.30;22.50;;;;;;2052668;62;20474;-65
2024/04/15 05:21:35;0.00;0.00;0.62;0.00;0.00;0.62;2.97;1.57;;;26.30;22.40;;;;;;2053137;62;20459;-65
2024/04/15 05:24:20;0.00;0.00;0.62;0.00;0.00;0.62;3.07;1.40;;;26.30;22.50;;;;;;2053220;62;20454;-65
2024/04/15 05:27:04;0.00;0.00;0.62;0.00;0.00;0.62;3.70;1.70;;;26.30;22.50;;;;;;2050369;62;20509;-65
2024/04/15 05:29:49;0.00;0.00;0.62;0.00;0.00;0.62;3.80;2.10;;;26.30;22.50;;;;;;2053132;62;21017;-64
2024/04/15 05:32:36;0.00;0.00;0.62;0.00;0.00;0.62;2.80;1.70;;;26.30;22.50;;;;;;2052787;62;20474;-64
2024/04/15 05:35:21;0.00;0.00;0.62;0.00;0.00;0.62;3.63;1.80;;;26.30;22.50;;;;;;2053715;62;20527;-65
2024/04/15 05:38:05;0.00;0.00;0.62;0.00;0.00;0.62;4.90;2.40;;;26.30;22.50;;;;;;2053207;62;20883;-64
2024/04/15 05:40:50;0.00;0.00;0.62;0.00;0.00;0.62;4.33;2.40;;;26.30;22.50;;;;;;2052573;62;20479;-65
2024/04/15 05:43:34;0.00;0.00;0.62;0.00;0.00;0.62;4.50;2.80;;;26.30;22.50;;;;;;2053397;62;20509;-64
2024/04/15 05:46:19;0.00;0.00;0.62;0.00;0.00;0.62;5.60;3.17;;;26.30;22.50;;;;;;2053226;62;20520;-64
2024/04/15 05:49:06;0.00;0.00;0.62;0.00;0.00;0.62;5.77;2.97;;;26.30;22.50;;;;;;2052785;62;20459;-64
2024/04/15 05:51:51;0.00;0.00;0.62;0.00;0.00;0.62;4.70;3.00;;;26.30;22.50;;;;;;2053409;62;20959;-65
2024/04/15 05:54:36;0.00;0.00;0.62;0.00;0.00;0.62;5.90;3.50;;;26.30;22.60;;;;;;2052666;62;20933;-64
2024/04/15 05:57:20;0.00;0.00;0.62;0.00;0.00;0.62;3.93;3.30;;;26.30;22.80;;;;;;2053773;62;20528;-64
2024/04/15 06:00:06;0.00;0.00;0.62;0.00;0.00;0.62;4.87;3.33;;;26.30;22.60;;;;;;2048929;62;20532;-64
2024/04/15 06:02:57;0.00;0.00;0.62;0.00;0.00;0.62;4.80;3.47;;;26.30;22.60;;;;;;2052889;62;20467;-64
2024/04/15 06:05:45;0.00;0.00;0.62;0.00;0.00;0.62;5.37;3.73;;;26.30;22.60;;;;;;2053237;62;20511;-64
2024/04/15 06:08:30;0.00;0.00;0.62;0.00;0.00;0.62;5.07;3.30;;;26.30;22.60;;;;;;2058693;62;20472;-66
2024/04/15 06:11:14;0.00;0.00;0.62;0.00;0.00;0.62;5.60;4.10;;;26.30;22.60;;;;;;2054204;62;21016;-65
2024/04/15 06:13:59;0.00;0.00;0.62;0.00;0.00;0.62;4.63;4.00;;;26.30;22.60;;;;;;2053279;62;21011;-65
2024/04/15 06:16:44;0.00;0.00;0.62;0.00;0.00;0.62;5.80;3.73;;;26.30;22.60;;;;;;2053223;62;20516;-65
2024/04/15 06:19:28;0.00;0.00;0.62;0.00;0.00;0.62;6.07;4.57;;;26.30;22.70;;;;;;2053039;62;20996;-64
2024/04/15 06:22:16;0.00;0.00;0.62;0.00;0.00;0.62;5.17;3.93;;;26.20;22.70;;;;;;2053174;62;20455;-65
2024/04/15 06:25:00;0.00;0.00;0.62;0.00;0.00;0.62;5.20;4.13;;;26.30;22.70;;;;;;2052938;62;20461;-66
2024/04/15 06:27:45;0.00;0.00;0.62;0.00;0.00;0.62;5.20;3.63;;;26.20;22.70;;;;;;2053469;62;20455;-65
2024/04/15 06:30:30;0.00;0.00;0.62;0.00;0.00;0.62;6.17;4.03;;;26.20;22.70;;;;;;2049256;62;20565;-66
2024/04/15 06:33:14;0.00;0.00;0.62;0.00;0.00;0.62;5.83;4.00;;;26.20;22.70;;;;;;2053089;62;20545;-64
2024/04/15 06:35:59;0.00;0.00;0.62;0.00;0.00;0.62;5.73;3.87;;;26.20;22.70;;;;;;2053361;62;20512;-65
2024/04/15 06:38:46;0.00;0.00;0.62;0.00;0.00;0.62;4.60;3.90;;;26.20;22.80;;;;;;2052990;62;20466;-64
2024/04/15 06:41:31;0.00;0.00;0.62;0.00;0.00;0.62;5.00;3.67;;;26.20;22.80;;;;;;2053080;62;20458;-64
2024/04/15 06:44:16;0.00;0.00;0.62;0.00;0.00;0.62;5.73;4.17;;;26.20;22.80;;;;;;2053293;62;20455;-64
2024/04/15 06:47:01;0.00;0.00;0.62;0.00;0.00;0.62;6.07;4.10;;;26.20;22.90;;;;;;2052869;62;20479;-64
2024/04/15 06:49:45;0.00;0.00;0.62;0.00;0.00;0.62;5.70;4.17;;;26.20;22.90;;;;;;2053048;62;20532;-63
2024/04/15 06:52:30;0.00;0.00;0.62;0.00;0.00;0.62;5.10;4.60;;;26.20;22.90;;;;;;2049213;62;20488;-65
2024/04/15 06:55:20;0.00;0.00;0.62;0.00;0.00;0.62;7.23;5.03;;;26.20;22.90;;;;;;2051202;62;20465;-64
2024/04/15 06:58:05;0.00;0.00;0.62;0.00;0.00;0.62;6.37;5.17;;;26.20;22.90;;;;;;2057977;62;20522;-65
2024/04/15 07:00:49;0.00;0.00;0.62;0.00;0.00;0.62;6.47;5.20;;;26.20;22.90;;;;;;2057996;62;20457;-64
2024/04/15 07:03:34;0.00;0.00;0.62;0.00;0.00;0.62;6.20;4.43;;;26.20;22.90;;;;;;2053316;62;21039;-65
2024/04/15 07:06:19;0.00;0.00;0.62;0.00;0.00;0.62;8.53;5.13;;;26.20;22.90;;;;;;2053316;62;20493;-65
2024/04/15 07:09:03;0.00;0.00;0.62;0.00;0.00;0.62;6.90;5.00;;;26.20;22.90;;;;;;2053246;62;20854;-63
2024/04/15 07:11:50;0.00;0.00;0.62;0.00;0.00;0.62;6.60;4.53;;;26.20;22.90;;;;;;2053923;62;20506;-65
2024/04/15 07:14:36;0.00;0.00;0.62;0.00;0.00;0.62;8.30;6.00;;;26.20;22.90;;;;;;2053545;62;20462;-64
2024/04/15 07:17:21;0.00;0.00;0.62;0.00;0.00;0.62;6.97;5.43;;;26.20;22.90;;;;;;2053212;62;20599;-65
2024/04/15 07:20:07;0.00;0.00;0.62;0.00;0.00;0.62;7.63;6.00;;;26.20;22.90;;;;;;2053046;62;20493;-65
2024/04/15 07:22:52;0.00;0.00;0.62;0.00;0.00;0.62;7.37;6.37;;;26.20;22.90;;;;;;2053616;62;20466;-65
2024/04/15 07:25:36;0.00;0.00;0.62;0.00;0.00;0.62;6.53;5.83;;;26.20;22.90;;;;;;2053271;62;20474;-65
2024/04/15 07:28:24;0.00;0.00;0.62;0.00;0.00;0.62;8.77;6.40;;;26.20;22.80;;;;;;2053396;62;20874;-65
2024/04/15 07:31:08;0.00;0.00;0.62;0.00;0.00;0.62;8.77;6.50;;;26.20;22.80;;;;;;2052967;62;20470;-64
2024/04/15 07:33:53;0.00;0.00;0.62;0.00;0.00;0.62;6.97;6.27;;;26.20;22.80;;;;;;2053758;62;20475;-64
2024/04/15 07:36:38;0.00;0.00;0.62;0.00;0.00;0.62;8.60;6.63;;;26.20;22.80;;;;;;2053385;62;20971;-64
2024/04/15 07:39:22;0.00;0.00;0.62;0.00;0.00;0.62;7.70;6.90;;;26.20;23.40;;;;;;2052970;62;20915;-64
2024/04/15 07:42:07;0.00;0.00;0.62;0.00;0.00;0.62;9.43;7.43;;;26.20;22.80;;;;;;2053290;62;20500;-64
2024/04/15 07:44:55;0.00;0.00;0.62;0.00;0.00;0.62;7.30;6.50;;;26.20;22.80;;;;;;2049084;62;20467;-64
2024/04/15 07:47:40;0.00;0.00;0.62;0.00;0.00;0.62;9.10;6.70;;;26.20;22.90;;;;;;2052864;62;20500;-65
2024/04/15 07:50:24;0.00;0.00;0.62;0.00;0.00;0.62;8.23;7.40;;;26.20;22.90;;;;;;2053126;62;20517;-65
2024/04/15 07:53:09;0.00;0.00;0.62;0.00;0.00;0.62;7.60;6.80;;;26.20;22.90;;;;;;2052839;62;20462;-64
2024/04/15 07:55:54;0.00;0.00;0.62;0.00;0.00;0.62;7.87;7.07;;;26.20;22.90;;;;;;2047301;62;20490;-64
2024/04/15 07:58:40;0.00;0.00;0.62;0.00;0.00;0.62;7.47;6.00;;;26.20;22.90;;;;;;2048067;62;20474;-64
2024/04/15 08:01:28;0.00;0.00;0.62;0.00;0.00;0.62;8.07;6.70;;;26.20;22.90;;;;;;2050191;62;20466;-64
2024/04/15 08:04:12;0.00;0.00;0.62;0.00;0.00;0.62;7.57;6.57;;;26.20;22.90;;;;;;2053503;62;21010;-65
2024/04/15 08:06:57;0.00;0.00;0.62;0.00;0.00;0.62;7.80;5.77;;;26.20;22.80;;;;;;2053534;62;20454;-64
2024/04/15 08:09:42;0.00;0.00;0.62;0.00;0.00;0.62;8.03;6.10;;;26.20;22.80;;;;;;2052825;62;20471;-64
2024/04/15 08:12:27;0.00;0.00;0.62;0.00;0.00;0.62;6.80;5.80;;;26.20;22.80;;;;;;2053421;62;20528;-64
2024/04/15 08:15:12;0.00;0.00;0.62;0.00;0.00;0.62;8.10;5.33;;;26.20;22.80;;;;;;2052813;62;20470;-64
2024/04/15 08:18:00;0.00;0.00;0.62;0.00;0.00;0.62;6.77;5.37;;;26.20;22.70;;;;;;2053795;62;20459;-64
2024/04/15 08:20:53;0.00;0.00;0.62;0.00;0.00;0.62;5.97;4.77;;;26.20;22.70;;;;;;2053348;62;20463;-64
2024/04/15 08:23:38;0.00;0.00;0.62;0.00;0.00;0.62;6.67;5.10;;;26.20;22.70;;;;;;2053884;62;20879;-65
2024/04/15 08:26:23;0.00;0.00;0.62;0.00;0.00;0.62;5.47;4.50;;;26.20;22.60;;;;;;2053360;62;20455;-64
2024/04/15 08:29:09;0.00;0.00;0.62;0.00;0.00;0.62;5.57;4.70;;;26.20;22.60;;;;;;2053267;62;21078;-64
2024/04/15 08:31:54;0.00;0.00;0.62;0.00;0.00;0.62;4.97;4.37;;;26.20;22.60;;;;;;2053223;62;20479;-65
2024/04/15 08:34:42;0.00;0.00;0.62;0.00;0.00;0.62;5.27;4.50;;;26.20;22.60;;;;;;2053148;62;20462;-65
2024/04/15 08:37:27;0.00;0.00;0.62;0.00;0.00;0.62;5.20;4.43;;;26.20;22.60;;;;;;2057970;62;20461;-65
2024/04/15 08:40:13;0.00;0.00;0.62;0.00;0.00;0.62;5.90;4.83;;;26.20;22.60;;;;;;2058238;62;20456;-65
2024/04/15 08:43:01;0.00;0.00;0.62;0.00;0.00;0.62;4.90;3.77;;;26.20;22.60;;;;;;2058460;62;20457;-64
2024/04/15 08:45:49;0.00;0.00;0.62;0.00;0.00;0.62;6.37;3.93;;;26.20;22.70;;;;;;2056261;62;20475;-65
2024/04/15 08:48:37;0.00;0.00;0.62;0.00;0.00;0.62;5.10;4.20;;;26.20;22.60;;;;;;2053092;62;20935;-65
2024/04/15 08:51:25;0.00;0.00;0.62;0.00;0.00;0.62;6.10;4.50;;;26.20;22.60;;;;;;2053297;62;20471;-65
2024/04/15 08:54:09;0.00;0.00;0.62;0.00;0.00;0.62;5.07;4.30;;;26.20;22.60;;;;;;2053077;62;20505;-65
2024/04/15 08:56:59;0.00;0.00;0.62;0.00;0.00;0.62;7.50;4.90;;;26.20;22.60;;;;;;2053376;62;20513;-65
2024/04/15 08:59:45;0.00;0.00;0.62;0.00;0.00;0.62;5.43;4.30;;;26.20;23.20;;;;;;2057234;62;20538;-65
2024/04/15 09:02:31;0.00;0.00;0.62;0.00;0.00;0.62;5.37;4.33;;;26.20;22.70;;;;;;2053349;62;20491;-65
2024/04/15 09:05:17;0.00;0.00;0.62;0.00;0.00;0.62;6.97;4.47;;;26.20;22.60;;;;;;2053085;62;20535;-64
2024/04/15 09:08:05;0.00;0.00;0.62;0.00;0.00;0.62;4.80;3.60;;;26.20;22.60;;;;;;2052973;62;20467;-65
2024/04/15 09:10:53;0.00;0.00;0.62;0.00;0.00;0.62;4.93;4.27;;;26.20;22.60;;;;;;2058217;62;20926;-65
2024/04/15 09:13:38;0.00;0.00;0.62;0.00;0.00;0.62;5.70;4.30;;;26.20;22.60;;;;;;2058349;62;20460;-65
2024/04/15 09:16:22;0.00;0.00;0.62;0.00;0.00;0.62;4.47;4.07;;;26.30;22.70;;;;;;2053794;62;20510;-65
2024/04/15 09:19:08;0.00;0.00;0.62;0.00;0.00;0.62;4.20;3.60;;;26.20;22.60;;;;;;2053250;62;20466;-64
2024/04/15 09:21:59;0.00;0.00;0.62;0.00;0.00;0.62;5.00;3.77;;;26.20;22.60;;;;;;2052526;62;20467;-65
2024/04/15 09:24:47;0.00;0.00;0.62;0.00;0.00;0.62;5.73;4.00;;;26.20;22.70;;;;;;2053460;62;20459;-65
2024/04/15 09:27:32;0.00;0.00;0.62;0.00;0.00;0.62;4.57;4.00;;;26.30;22.70;;;;;;2053244;62;20450;-65
2024/04/15 09:30:17;0.00;0.00;0.62;0.00;0.00;0.62;5.33;3.60;;;26.30;22.70;;;;;;2052585;62;20463;-65
2024/04/15 09:33:03;0.00;0.00;0.62;0.00;0.00;0.62;4.23;3.20;;;26.30;22.70;;;;;;2053172;62;20499;-65
2024/04/15 09:35:48;0.00;0.00;0.62;0.00;0.00;0.62;4.17;3.60;;;26.20;22.70;;;;;;2053365;62;20455;-65
2024/04/15 09:38:33;0.00;0.00;0.62;0.00;0.00;0.62;4.40;3.40;;;26.30;22.70;;;;;;2052861;62;20471;-64
2024/04/15 09:41:22;0.00;0.00;0.62;0.00;0.00;0.62;5.93;3.43;;;26.20;22.70;;;;;;2049029;62;20474;-65
2024/04/15 09:44:11;0.00;0.00;0.62;0.00;0.00;0.62;4.83;3.37;;;26.30;22.80;;;;;;2052670;62;21034;-63
2024/04/15 09:46:57;0.00;0.00;0.62;0.00;0.00;0.62;3.87;3.17;;;26.30;22.90;;;;;;2053502;62;20466;-65
2024/04/15 09:49:42;0.00;0.00;0.62;0.00;0.00;0.62;3.00;2.70;;;26.30;22.90;;;;;;2052806;62;20504;-64
2024/04/15 09:52:31;0.00;0.00;0.62;0.00;0.00;0.62;3.70;3.20;;;26.30;22.90;;;;;;2052783;62;20466;-65
2024/04/15 09:55:30;0.00;0.00;0.62;0.00;0.00;0.62;3.03;2.73;;;26.30;22.90;;;;;;2053103;62;20531;-65
2024/04/15 09:58:26;0.00;0.00;0.62;0.00;0.00;0.62;4.43;3.47;;;26.30;22.90;;;;;;2053240;62;20475;-65
2024/04/15 10:01:18;0.00;0.00;0.62;0.00;0.00;0.62;4.73;3.07;;;26.30;22.90;;;;;;2052954;62;20498;-64
2024/04/15 10:04:06;0.00;0.00;0.62;0.00;0.00;0.62;4.37;3.60;;;26.30;22.90;;;;;;2053203;62;20905;-64
2024/04/15 10:06:56;0.00;0.00;0.62;0.00;0.00;0.62;5.10;3.37;;;26.30;22.90;;;;;;2053044;62;20475;-64
2024/04/15 10:09:41;0.00;0.00;0.62;0.00;0.00;0.62;4.40;3.53;;;26.30;22.90;;;;;;2052900;62;20450;-65
2024/04/15 10:12:26;0.00;0.00;0.62;0.00;0.00;0.62;3.60;3.10;;;26.30;22.90;;;;;;2053422;62;20467;-65
2024/04/15 10:15:14;0.00;0.00;0.62;0.00;0.00;0.62;3.87;3.47;;;26.30;22.90;;;;;;2052890;62;21016;-65
2024/04/15 10:18:02;0.00;0.00;0.62;0.00;0.00;0.62;5.47;3.77;;;26.30;22.90;;;;;;2053050;62;20500;-65
2024/04/15 10:20:47;0.00;0.00;0.62;0.00;0.00;0.62;4.03;3.47;;;26.30;22.90;;;;;;2051413;62;20485;-65
2024/04/15 10:23:31;0.00;0.00;0.62;0.00;0.00;0.62;4.20;3.60;;;26.30;22.90;;;;;;2053624;62;20463;-65
2024/04/15 10:26:16;0.00;0.00;0.62;0.00;0.00;0.62;5.40;4.10;;;26.30;22.90;;;;;;2053146;62;20528;-65
2024/04/15 10:29:15;0.00;0.00;0.62;0.00;0.00;0.62;5.43;4.17;;;26.30;22.80;;;;;;2052682;62;20466;-64
2024/04/15 10:32:07;0.00;0.00;0.62;0.00;0.00;0.62;6.73;4.50;;;26.30;22.70;;;;;;2053113;62;20459;-65
2024/04/15 10:34:56;0.00;0.00;0.62;0.00;0.00;0.62;5.67;4.90;;;26.30;22.70;;;;;;2057981;62;20526;-65
2024/04/15 10:37:41;0.00;0.00;0.62;0.00;0.00;0.62;7.33;4.50;;;26.30;22.70;;;;;;2053803;62;20859;-65
2024/04/15 10:40:30;0.00;0.00;0.62;0.00;0.00;0.62;6.67;4.93;;;26.30;22.60;;;;;;2052982;62;20515;-64
2024/04/15 10:43:17;0.00;0.00;0.62;0.00;0.00;0.62;5.83;5.23;;;26.40;22.70;;;;;;2052935;62;20468;-65
2024/04/15 10:46:03;0.00;0.00;0.62;0.00;0.00;0.62;5.77;4.30;;;26.40;22.70;;;;;;2053603;62;20463;-64
2024/04/15 10:48:51;0.00;0.00;0.62;0.00;0.00;0.62;5.83;4.07;;;26.40;22.70;;;;;;2053421;62;20484;-64
2024/04/15 10:51:35;0.00;0.00;0.62;0.00;0.00;0.62;6.00;3.93;;;26.40;22.60;;;;;;2053205;62;20501;-65
2024/04/15 10:54:21;0.00;0.00;0.62;0.00;0.00;0.62;6.17;4.10;;;26.40;22.60;;;;;;2053368;62;20466;-66